CheckWX is a tool to help pilots better visualize weather data.  It is not intended as a substitute for an official pre-flight weather briefing.

08:11:44 UTC

KSFM METAR
Sanford Seacoast Regional Airport
Sanford, Maine, USA
Current

16 mins ago

KSFM 220756Z AUTO 29010KT 10SM SCT055 02/M06 A3006 RMK AO2 SLP185 T00171056 FZRANO PNO $
Observed
Feb-22 @ 07:56 UTC
Wind
  • 290° at 10 KTS
Visibility
10 SM
Flight Rules
VFR
Cloud Levels
  • Scattered at 5,500' AGL
Temperature
C / 36°F
Dewpoint
-6°C / 21°F
Humidity
56%
Altimeter
30.06" Hg
Pressure
1018.5 hPa
Previous

1 hour ago

KSFM 220656Z AUTO 27009G16KT 10SM FEW055 02/M05 A3003 RMK AO2 SLP175 T00221050 FZRANO PNO $
Observed
Feb-22 @ 06:56 UTC
Wind
  • 270° at 9 KTS
  • Gusting to KTS
Visibility
10 SM
Flight Rules
VFR
Cloud Levels
  • Few at 5,500' AGL
Temperature
C / 36°F
Dewpoint
-5°C / 23°F
Humidity
60%
Altimeter
30.03" Hg
Pressure
1017.5 hPa
Previous

2 hours ago

KSFM 220556Z AUTO 28009KT 10SM SCT050 BKN060 03/M04 A2999 RMK AO2 SLP161 6//// T00281044 10044 20028 53016 PNO $
Observed
Feb-22 @ 05:56 UTC
Wind
  • 280° at 9 KTS
Visibility
10 SM
Flight Rules
VFR
Cloud Levels
  • Scattered at 5,000' AGL
  • Broken at 6,000' AGL
Temperature
C / 37°F
Dewpoint
-4°C / 25°F
Humidity
60%
Altimeter
29.99" Hg
Pressure
1016.1 hPa